createdAt,value
2022-11-20T00:01:42.964Z,12.37
2022-11-20T00:04:12.658Z,11.67
2022-11-20T00:06:40.885Z,11.33
2022-11-20T00:09:12.284Z,9.93
2022-11-20T00:11:40.305Z,9.83
2022-11-20T00:14:11.741Z,9.70
2022-11-20T00:16:39.940Z,10.23
2022-11-20T00:19:10.080Z,10.20
2022-11-20T00:21:38.123Z,10.37
2022-11-20T00:24:10.654Z,9.80
2022-11-20T00:26:40.075Z,10.03
2022-11-20T00:29:13.737Z,9.53
2022-11-20T00:31:46.456Z,10.17
2022-11-20T00:34:14.708Z,10.03
2022-11-20T00:36:42.830Z,10.13
2022-11-20T00:39:12.512Z,10.40
2022-11-20T00:41:42.097Z,9.93
2022-11-20T00:44:10.201Z,9.17
2022-11-20T00:46:38.571Z,9.57
2022-11-20T00:49:06.579Z,10.53
2022-11-20T00:51:34.589Z,11.63
2022-11-20T00:54:03.331Z,10.50
2022-11-20T00:56:31.514Z,10.07
2022-11-20T00:59:02.859Z,10.07
2022-11-20T01:01:31.402Z,11.47
2022-11-20T01:04:01.881Z,11.30
2022-11-20T01:06:31.865Z,10.23
2022-11-20T01:09:02.515Z,10.73
2022-11-20T01:11:32.868Z,10.85
2022-11-20T01:14:04.855Z,10.35
2022-11-20T01:16:35.821Z,11.30
2022-11-20T01:19:07.245Z,11.27
2022-11-20T01:21:37.129Z,11.13
2022-11-20T01:24:08.793Z,10.33
2022-11-20T01:26:39.625Z,9.77
2022-11-20T01:29:14.606Z,10.32
2022-11-20T01:31:43.311Z,10.00
2022-11-20T01:34:13.766Z,8.63
2022-11-20T01:36:43.007Z,8.80
2022-11-20T01:39:14.546Z,9.13
2022-11-20T01:42:00.351Z,7.87
2022-11-20T01:44:53.191Z,8.80
2022-11-20T01:47:33.993Z,7.33
2022-11-20T01:50:06.349Z,6.60
2022-11-20T01:52:38.478Z,6.77
2022-11-20T01:55:10.118Z,5.17
2022-11-20T01:57:40.943Z,4.73
2022-11-20T02:00:15.074Z,5.15
2022-11-20T02:02:46.257Z,5.33
2022-11-20T02:05:20.242Z,5.20
2022-11-20T02:07:49.256Z,4.90
2022-11-20T02:10:17.811Z,4.60
2022-11-20T02:13:03.858Z,4.33
2022-11-20T02:15:35.138Z,4.40
2022-11-20T02:18:03.668Z,3.83
2022-11-20T02:20:31.817Z,4.10
2022-11-20T02:23:06.014Z,4.33
2022-11-20T02:25:37.673Z,3.30
2022-11-20T02:28:07.141Z,3.20
2022-11-20T02:30:35.296Z,3.93
2022-11-20T02:33:03.489Z,2.80
2022-11-20T02:35:45.791Z,2.67
2022-11-20T02:38:15.067Z,2.23
2022-11-20T02:40:44.761Z,2.97
2022-11-20T02:43:17.586Z,2.50
2022-11-20T02:45:45.859Z,2.63
2022-11-20T02:48:13.924Z,2.90
2022-11-20T02:50:42.313Z,2.10
2022-11-20T02:53:10.542Z,2.50
2022-11-20T02:55:38.700Z,2.87
2022-11-20T02:58:08.336Z,2.60
2022-11-20T03:00:36.586Z,2.30
2022-11-20T03:03:04.677Z,2.50
2022-11-20T03:05:32.925Z,2.03
2022-11-20T03:08:01.068Z,1.77
2022-11-20T03:10:29.665Z,2.10
2022-11-20T03:12:58.074Z,2.10
2022-11-20T03:15:27.505Z,2.03
2022-11-20T03:17:57.117Z,2.13
2022-11-20T03:20:25.344Z,1.60
2022-11-20T03:22:55.794Z,1.80
2022-11-20T03:25:24.462Z,1.45
2022-11-20T03:27:52.782Z,2.03
2022-11-20T03:30:21.054Z,1.60
2022-11-20T03:32:50.569Z,1.60
2022-11-20T03:35:18.901Z,1.50
2022-11-20T03:37:47.212Z,1.87
2022-11-20T03:40:15.427Z,1.77
2022-11-20T03:42:49.096Z,1.60
2022-11-20T03:45:18.961Z,2.00
2022-11-20T03:47:47.971Z,1.37
2022-11-20T03:50:17.439Z,2.20
2022-11-20T03:52:45.514Z,1.93
2022-11-20T03:55:13.598Z,1.50
2022-11-20T03:57:41.903Z,1.60
2022-11-20T04:00:11.259Z,1.57
2022-11-20T04:02:39.410Z,1.70
2022-11-20T04:05:08.340Z,1.57
2022-11-20T04:07:38.067Z,1.67
2022-11-20T04:10:07.156Z,1.73
2022-11-20T04:12:38.080Z,2.03
2022-11-20T04:15:06.700Z,2.00
2022-11-20T04:17:35.219Z,1.63
2022-11-20T04:20:03.381Z,1.70
2022-11-20T04:22:31.643Z,1.70
2022-11-20T04:25:03.226Z,2.07
2022-11-20T04:27:33.130Z,2.00
2022-11-20T04:30:02.226Z,2.33
2022-11-20T04:32:30.340Z,2.33
2022-11-20T04:34:58.480Z,3.23
2022-11-20T04:37:26.626Z,2.07
2022-11-20T04:39:54.725Z,1.90
2022-11-20T04:42:33.059Z,2.30
2022-11-20T04:45:01.243Z,2.10
2022-11-20T04:47:29.500Z,1.77
2022-11-20T04:49:57.603Z,1.73
2022-11-20T04:52:25.717Z,2.53
2022-11-20T04:54:54.971Z,2.20
2022-11-20T04:57:24.431Z,1.80
2022-11-20T04:59:52.620Z,2.17
2022-11-20T05:02:21.281Z,2.40
2022-11-20T05:04:49.761Z,2.67
2022-11-20T05:07:17.942Z,2.47
2022-11-20T05:09:47.012Z,2.47
2022-11-20T05:12:15.080Z,2.87
2022-11-20T05:14:44.560Z,2.20
2022-11-20T05:17:13.495Z,2.60
2022-11-20T05:19:41.526Z,2.20
2022-11-20T05:22:09.734Z,2.57
2022-11-20T05:24:37.796Z,3.50
2022-11-20T05:27:05.864Z,2.13
2022-11-20T05:29:33.998Z,2.50
2022-11-20T05:32:03.449Z,2.80
2022-11-20T05:34:31.590Z,2.03
2022-11-20T05:36:59.675Z,2.27
2022-11-20T05:39:27.763Z,2.50
2022-11-20T05:42:09.733Z,2.27
2022-11-20T05:44:38.134Z,2.57
2022-11-20T05:47:08.040Z,2.63
2022-11-20T05:49:36.100Z,2.20
2022-11-20T05:52:04.278Z,2.53
2022-11-20T05:54:32.485Z,2.00
2022-11-20T05:57:00.553Z,2.03
2022-11-20T05:59:28.723Z,2.87
2022-11-20T06:01:56.762Z,2.60
2022-11-20T06:04:26.576Z,1.93
2022-11-20T06:06:54.637Z,2.50
2022-11-20T06:09:22.866Z,2.53
2022-11-20T06:11:51.180Z,2.20
2022-11-20T06:14:19.260Z,3.07
2022-11-20T06:16:47.319Z,2.47
2022-11-20T06:19:16.039Z,2.30
2022-11-20T06:21:45.565Z,2.13
2022-11-20T06:24:14.003Z,2.33
2022-11-20T06:26:42.070Z,2.10
2022-11-20T06:29:10.227Z,2.47
2022-11-20T06:31:38.790Z,2.17
2022-11-20T06:34:07.701Z,2.50
2022-11-20T06:36:36.345Z,2.60
2022-11-20T06:39:06.213Z,2.03
2022-11-20T06:41:35.492Z,2.53
2022-11-20T06:44:07.768Z,2.67
2022-11-20T06:46:35.828Z,3.17
2022-11-20T06:49:03.811Z,2.73
2022-11-20T06:51:32.360Z,2.50
2022-11-20T06:54:01.911Z,2.50
2022-11-20T06:56:31.316Z,2.90
2022-11-20T06:58:59.396Z,2.50
2022-11-20T07:01:27.497Z,2.50
2022-11-20T07:03:55.649Z,2.13
2022-11-20T07:06:23.766Z,2.73
2022-11-20T07:08:53.424Z,2.37
2022-11-20T07:11:21.510Z,3.17
2022-11-20T07:13:52.166Z,2.63
2022-11-20T07:16:20.413Z,2.80
2022-11-20T07:18:50.898Z,4.07
2022-11-20T07:21:19.521Z,3.22
2022-11-20T07:23:47.950Z,3.17
2022-11-20T07:26:15.986Z,3.40
2022-11-20T07:28:46.603Z,3.77
2022-11-20T07:31:19.130Z,3.53
2022-11-20T07:33:47.764Z,3.20
2022-11-20T07:36:15.828Z,3.10
2022-11-20T07:38:43.992Z,3.17
2022-11-20T07:41:12.014Z,2.30
2022-11-20T07:43:41.667Z,2.10
2022-11-20T07:46:10.105Z,2.40
2022-11-20T07:48:39.500Z,2.63
2022-11-20T07:51:07.816Z,2.10
2022-11-20T07:53:35.926Z,2.77
2022-11-20T07:56:05.097Z,2.30
2022-11-20T07:58:35.413Z,2.30
2022-11-20T08:01:07.099Z,2.90
2022-11-20T08:03:35.416Z,2.73
2022-11-20T08:06:04.839Z,3.00
2022-11-20T08:08:34.016Z,2.47
2022-11-20T08:11:16.860Z,2.40
2022-11-20T08:14:02.363Z,2.30
2022-11-20T08:16:30.614Z,2.87
2022-11-20T08:18:58.614Z,2.37
2022-11-20T08:21:28.109Z,2.27
2022-11-20T08:23:56.175Z,2.83
2022-11-20T08:26:24.336Z,2.47
2022-11-20T08:28:55.529Z,1.80
2022-11-20T08:31:23.713Z,2.63
2022-11-20T08:33:51.976Z,2.50
2022-11-20T08:36:21.059Z,2.10
2022-11-20T08:38:51.037Z,2.40
2022-11-20T08:41:28.808Z,2.13
2022-11-20T08:43:59.714Z,2.63
2022-11-20T08:46:29.709Z,2.00
2022-11-20T08:48:57.715Z,2.60
2022-11-20T08:51:25.781Z,2.90
2022-11-20T08:53:55.207Z,2.70
2022-11-20T08:56:23.206Z,2.50
2022-11-20T08:59:18.274Z,2.70
2022-11-20T09:01:40.583Z,3.03
2022-11-20T09:04:08.860Z,4.13
2022-11-20T09:06:37.030Z,4.70
2022-11-20T09:09:07.196Z,4.93
2022-11-20T09:11:36.554Z,4.97
2022-11-20T09:14:05.537Z,4.63
2022-11-20T09:16:33.599Z,4.40
2022-11-20T09:19:33.613Z,4.40
2022-11-20T09:21:49.602Z,4.07
2022-11-20T09:24:21.588Z,3.63
2022-11-20T09:26:49.637Z,3.77
2022-11-20T09:29:17.650Z,4.37
2022-11-20T09:31:45.722Z,4.70
2022-11-20T09:34:13.744Z,3.80
2022-11-20T09:36:41.749Z,3.70
2022-11-20T09:39:09.804Z,4.77
2022-11-20T09:41:59.656Z,5.00
2022-11-20T09:44:42.185Z,4.40
2022-11-20T09:47:17.030Z,4.67
2022-11-20T09:49:59.801Z,4.70
2022-11-20T09:52:42.405Z,3.97
2022-11-20T09:55:14.026Z,3.83
2022-11-20T09:57:46.477Z,3.60
2022-11-20T10:00:16.899Z,3.90
2022-11-20T10:02:50.713Z,4.10
2022-11-20T10:05:23.387Z,4.20
2022-11-20T10:07:57.140Z,3.73
2022-11-20T10:10:39.706Z,3.70
2022-11-20T10:13:26.818Z,3.83
2022-11-20T10:16:05.281Z,4.13
2022-11-20T10:18:47.037Z,4.33
2022-11-20T10:21:28.360Z,4.17
2022-11-20T10:24:09.258Z,3.37
2022-11-20T10:26:46.870Z,3.88
2022-11-20T10:29:18.871Z,3.57
2022-11-20T10:31:50.283Z,4.23
2022-11-20T10:34:26.151Z,3.67
2022-11-20T10:36:58.329Z,3.30
2022-11-20T10:39:35.188Z,3.93
2022-11-20T10:42:03.365Z,3.17
2022-11-20T10:44:56.271Z,5.13
2022-11-20T10:47:24.647Z,3.40
2022-11-20T10:49:56.141Z,3.20
2022-11-20T10:52:34.299Z,3.57
2022-11-20T10:55:13.947Z,3.17
2022-11-20T10:57:54.965Z,3.43
2022-11-20T11:00:27.164Z,3.63
2022-11-20T11:02:58.509Z,2.70
2022-11-20T11:05:39.270Z,2.90
2022-11-20T11:08:13.190Z,2.60
2022-11-20T11:10:50.065Z,2.90
2022-11-20T11:13:25.895Z,3.10
2022-11-20T11:15:56.669Z,2.40
2022-11-20T11:18:26.400Z,2.72
2022-11-20T11:20:56.093Z,2.40
2022-11-20T11:23:35.854Z,2.90
2022-11-20T11:26:06.085Z,2.37
2022-11-20T11:28:35.111Z,2.83
2022-11-20T11:31:04.649Z,2.70
2022-11-20T11:33:35.465Z,2.10
2022-11-20T11:36:05.743Z,2.83
2022-11-20T11:38:38.553Z,2.65
2022-11-20T11:41:09.514Z,2.70
2022-11-20T11:43:57.313Z,2.93
2022-11-20T11:46:31.629Z,3.00
2022-11-20T11:49:00.756Z,2.87
2022-11-20T11:51:34.796Z,2.30
2022-11-20T11:54:05.409Z,3.17
2022-11-20T11:56:35.376Z,2.33
2022-11-20T11:59:12.984Z,2.93
2022-11-20T12:01:50.251Z,2.43
2022-11-20T12:04:27.660Z,2.47
2022-11-20T12:07:18.274Z,3.13
2022-11-20T12:09:56.632Z,3.20
2022-11-20T12:12:29.684Z,3.43
2022-11-20T12:15:00.081Z,2.93
2022-11-20T12:17:29.884Z,4.05
2022-11-20T12:19:58.744Z,2.30
2022-11-20T12:22:37.460Z,3.50
2022-11-20T12:25:13.138Z,3.17
2022-11-20T12:27:57.237Z,2.50
2022-11-20T12:30:25.687Z,2.83
2022-11-20T12:33:12.008Z,3.87
2022-11-20T12:36:05.403Z,3.07
2022-11-20T12:39:02.104Z,4.10
2022-11-20T12:42:11.477Z,3.27
2022-11-20T12:45:15.413Z,3.87
2022-11-20T12:48:08.224Z,2.60
2022-11-20T12:51:13.987Z,3.27
2022-11-20T12:53:48.329Z,3.80
2022-11-20T12:56:30.248Z,4.07
2022-11-20T12:59:18.508Z,2.55
2022-11-20T13:01:52.293Z,3.00
2022-11-20T13:04:41.366Z,5.80
2022-11-20T13:07:13.631Z,2.58
2022-11-20T13:09:45.427Z,2.80
2022-11-20T13:12:18.584Z,2.75
2022-11-20T13:14:54.667Z,3.70
2022-11-20T13:17:31.902Z,2.80
2022-11-20T13:20:01.850Z,2.75
2022-11-20T13:22:44.010Z,3.30
2022-11-20T13:25:16.339Z,5.38
2022-11-20T13:27:50.053Z,5.30
2022-11-20T13:30:20.153Z,2.78
2022-11-20T13:32:56.899Z,2.97
2022-11-20T13:35:34.720Z,2.50
2022-11-20T13:38:05.906Z,2.75
2022-11-20T13:40:35.063Z,3.08
2022-11-20T13:43:21.818Z,2.22
2022-11-20T13:46:00.934Z,2.97
2022-11-20T13:48:33.281Z,3.00
2022-11-20T13:51:18.267Z,3.93
2022-11-20T13:54:13.397Z,2.35
2022-11-20T13:56:53.518Z,2.47
2022-11-20T13:59:40.113Z,2.87
2022-11-20T14:02:13.795Z,2.20
2022-11-20T14:04:47.073Z,4.35
2022-11-20T14:07:17.805Z,2.47
2022-11-20T14:09:53.814Z,3.05
2022-11-20T14:12:29.199Z,2.90
2022-11-20T14:14:57.804Z,2.75
2022-11-20T14:17:32.692Z,2.97
2022-11-20T14:20:03.628Z,4.07
2022-11-20T14:25:08.828Z,3.33
2022-11-20T14:27:40.194Z,2.13
2022-11-20T14:30:16.170Z,2.27
2022-11-20T14:32:45.248Z,3.70
2022-11-20T14:35:20.564Z,3.50
2022-11-20T14:37:50.166Z,3.20
2022-11-20T14:40:28.242Z,4.67
2022-11-20T14:42:57.069Z,2.87
2022-11-20T14:45:27.061Z,3.87
2022-11-20T14:47:58.238Z,3.95
2022-11-20T14:50:28.225Z,3.40
2022-11-20T14:53:00.204Z,3.53
2022-11-20T14:55:30.289Z,4.30
2022-11-20T14:58:00.567Z,3.10
2022-11-20T15:00:32.112Z,2.40
2022-11-20T15:03:00.838Z,3.15
2022-11-20T15:05:47.489Z,3.10
2022-11-20T15:08:20.529Z,2.40
2022-11-20T15:10:50.482Z,3.38
2022-11-20T15:13:26.041Z,2.60
2022-11-20T15:15:57.033Z,3.70
2022-11-20T15:18:29.218Z,3.42
2022-11-20T15:20:58.750Z,3.83
2022-11-20T15:23:29.572Z,3.37
2022-11-20T15:26:00.113Z,3.03
2022-11-20T15:28:33.817Z,2.60
2022-11-20T15:31:03.378Z,2.93
2022-11-20T15:33:32.321Z,3.43
2022-11-20T15:36:01.305Z,3.00
2022-11-20T15:38:30.826Z,3.07
2022-11-20T15:40:59.115Z,3.50
2022-11-20T15:43:27.261Z,4.13
2022-11-20T15:45:59.062Z,5.53
2022-11-20T15:48:31.098Z,7.07
2022-11-20T15:51:01.725Z,4.60
2022-11-20T15:53:31.694Z,2.78
2022-11-20T15:56:02.595Z,2.90
2022-11-20T15:58:30.741Z,3.17
2022-11-20T16:01:00.172Z,3.57
2022-11-20T16:03:28.364Z,3.43
2022-11-20T16:05:57.657Z,3.40
2022-11-20T16:08:25.858Z,2.87
2022-11-20T16:10:55.238Z,3.13
2022-11-20T16:13:41.383Z,2.90
2022-11-20T16:16:20.727Z,2.53
2022-11-20T16:18:48.833Z,3.77
2022-11-20T16:21:17.025Z,4.83
2022-11-20T16:23:45.354Z,7.43
2022-11-20T16:26:16.825Z,3.80
2022-11-20T16:28:45.604Z,3.90
2022-11-20T16:31:14.951Z,7.30
2022-11-20T16:33:43.546Z,3.97
2022-11-20T16:36:13.097Z,7.80
2022-11-20T16:38:41.623Z,5.10
2022-11-20T16:41:14.508Z,4.30
2022-11-20T16:43:51.713Z,3.57
2022-11-20T16:46:22.208Z,3.20
2022-11-20T16:48:55.488Z,2.90
2022-11-20T16:51:25.128Z,2.37
2022-11-20T16:53:55.093Z,3.00
2022-11-20T16:56:25.365Z,3.30
2022-11-20T16:58:57.442Z,2.83
2022-11-20T17:01:28.672Z,2.50
2022-11-20T17:03:59.012Z,1.70
2022-11-20T17:06:29.494Z,2.70
2022-11-20T17:08:58.466Z,5.15
2022-11-20T17:11:27.157Z,4.00
2022-11-20T17:13:57.605Z,2.63
2022-11-20T17:16:26.575Z,2.58
2022-11-20T17:19:01.316Z,2.63
2022-11-20T17:21:33.257Z,2.50
2022-11-20T17:24:03.180Z,2.50
2022-11-20T17:26:31.609Z,2.60
2022-11-20T17:29:02.891Z,3.37
2022-11-20T17:31:32.963Z,3.53
2022-11-20T17:34:01.884Z,3.05
2022-11-20T17:36:30.902Z,3.43
2022-11-20T17:39:01.691Z,3.70
2022-11-20T17:41:31.050Z,3.92
2022-11-20T17:44:03.839Z,3.73
2022-11-20T17:46:34.330Z,4.80
2022-11-20T17:49:03.168Z,5.25
2022-11-20T17:51:32.948Z,3.77
2022-11-20T17:54:07.260Z,4.43
2022-11-20T17:56:53.969Z,3.80
2022-11-20T17:59:25.635Z,4.13
2022-11-20T18:02:02.231Z,3.30
2022-11-20T18:04:34.016Z,3.83
2022-11-20T18:07:04.188Z,3.57
2022-11-20T18:09:32.403Z,3.73
2022-11-20T18:12:03.544Z,2.60
2022-11-20T18:14:36.665Z,2.97
2022-11-20T18:17:07.776Z,3.67
2022-11-20T18:19:44.666Z,2.75
2022-11-20T18:22:21.174Z,3.13
2022-11-20T18:24:49.266Z,2.87
2022-11-20T18:27:19.522Z,10.90
2022-11-20T18:29:51.953Z,3.55
2022-11-20T18:32:20.760Z,1.90
2022-11-20T18:34:48.802Z,2.37
2022-11-20T18:37:16.945Z,3.03
2022-11-20T18:39:45.116Z,3.50
2022-11-20T18:42:32.340Z,3.97
2022-11-20T18:45:04.187Z,5.60
2022-11-20T18:47:36.105Z,4.17
2022-11-20T18:50:10.293Z,3.47
2022-11-20T18:52:41.716Z,3.37
2022-11-20T18:55:11.096Z,3.27
2022-11-20T18:57:39.322Z,4.40
2022-11-20T19:00:10.427Z,3.53
2022-11-20T19:02:42.579Z,5.83
2022-11-20T19:05:11.856Z,4.60
2022-11-20T19:07:40.277Z,4.00
2022-11-20T19:10:09.099Z,4.33
2022-11-20T19:12:37.144Z,3.63
2022-11-20T19:15:06.206Z,3.77
2022-11-20T19:17:36.475Z,3.87
2022-11-20T19:20:04.998Z,3.70
2022-11-20T19:22:33.258Z,4.10
2022-11-20T19:25:01.344Z,3.43
2022-11-20T19:27:29.563Z,3.70
2022-11-20T19:30:03.228Z,3.20
2022-11-20T19:32:32.491Z,3.40
2022-11-20T19:35:02.619Z,4.27
2022-11-20T19:37:34.005Z,3.42
2022-11-20T19:42:32.687Z,3.78
2022-11-20T19:45:00.805Z,5.53
2022-11-20T19:47:52.579Z,4.47
2022-11-20T19:50:18.642Z,4.20
2022-11-20T19:52:47.167Z,4.00
2022-11-20T19:55:15.441Z,4.23
2022-11-20T19:57:43.591Z,4.30
2022-11-20T20:00:23.089Z,3.77
2022-11-20T20:02:53.877Z,3.78
2022-11-20T20:05:23.498Z,3.87
2022-11-20T20:07:51.572Z,3.87
2022-11-20T20:10:20.391Z,3.70
2022-11-20T20:12:48.889Z,3.80
2022-11-20T20:15:17.192Z,3.63
2022-11-20T20:17:46.923Z,3.63
2022-11-20T20:20:16.442Z,4.07
2022-11-20T20:22:46.188Z,3.43
2022-11-20T20:25:14.863Z,3.90
2022-11-20T20:27:43.423Z,3.93
2022-11-20T20:30:12.760Z,3.53
2022-11-20T20:32:40.865Z,4.03
2022-11-20T20:35:09.929Z,3.73
2022-11-20T20:37:37.987Z,4.30
2022-11-20T20:40:13.754Z,3.90
2022-11-20T20:42:43.385Z,4.27
2022-11-20T20:45:12.174Z,3.77
2022-11-20T20:47:41.881Z,3.50
2022-11-20T20:50:13.127Z,3.70
2022-11-20T20:52:41.311Z,3.50
2022-11-20T20:55:11.656Z,3.80
2022-11-20T20:57:39.756Z,3.55
2022-11-20T21:00:10.362Z,3.40
2022-11-20T21:02:38.647Z,3.00
2022-11-20T21:05:07.339Z,3.80
2022-11-20T21:07:57.221Z,3.67
2022-11-20T21:10:26.852Z,3.50
2022-11-20T21:12:54.974Z,3.13
2022-11-20T21:15:23.026Z,3.73
2022-11-20T21:17:51.231Z,3.87
2022-11-20T21:20:33.198Z,3.57
2022-11-20T21:23:01.639Z,4.20
2022-11-20T21:25:31.183Z,3.87
2022-11-20T21:27:59.320Z,4.03
2022-11-20T21:30:27.409Z,3.37
2022-11-20T21:32:56.735Z,3.23
2022-11-20T21:35:24.937Z,3.57
2022-11-20T21:37:53.013Z,3.30
2022-11-20T21:40:21.228Z,3.93
2022-11-20T21:42:50.717Z,4.03
2022-11-20T21:45:18.834Z,3.33
2022-11-20T21:47:50.012Z,3.97
2022-11-20T21:50:18.661Z,5.67
2022-11-20T21:52:46.786Z,4.40
2022-11-20T21:55:14.835Z,4.70
2022-11-20T21:57:45.597Z,4.40
2022-11-20T22:00:16.018Z,4.72
2022-11-20T22:02:44.105Z,4.43
2022-11-20T22:05:12.215Z,4.30
2022-11-20T22:07:44.435Z,4.57
2022-11-20T22:10:17.170Z,4.90
2022-11-20T22:12:46.612Z,4.57
2022-11-20T22:15:33.034Z,4.13
2022-11-20T22:18:15.270Z,4.97
2022-11-20T22:20:43.346Z,4.60
2022-11-20T22:23:11.449Z,5.17
2022-11-20T22:25:39.521Z,4.47
2022-11-20T22:28:07.560Z,4.50
2022-11-20T22:30:37.080Z,4.20
2022-11-20T22:33:09.000Z,5.17
2022-11-20T22:35:41.183Z,3.97
2022-11-20T22:38:09.162Z,4.53
2022-11-20T22:40:37.150Z,3.90
2022-11-20T22:43:05.230Z,3.93
2022-11-20T22:45:33.395Z,3.70
2022-11-20T22:48:02.764Z,3.17
2022-11-20T22:50:30.799Z,4.07
2022-11-20T22:52:58.872Z,3.10
2022-11-20T22:55:27.267Z,3.00
2022-11-20T22:57:55.669Z,3.30
2022-11-20T23:00:23.821Z,3.50
2022-11-20T23:02:51.833Z,2.67
2022-11-20T23:05:21.328Z,2.80
2022-11-20T23:07:49.494Z,3.10
2022-11-20T23:10:17.802Z,3.43
2022-11-20T23:12:46.014Z,3.30
2022-11-20T23:15:14.105Z,3.13
2022-11-20T23:17:42.740Z,3.07
2022-11-20T23:20:11.911Z,2.60
2022-11-20T23:22:41.309Z,3.27
2022-11-20T23:25:10.413Z,3.30
2022-11-20T23:27:38.509Z,2.73
2022-11-20T23:30:07.793Z,2.77
2022-11-20T23:32:35.901Z,2.93
2022-11-20T23:35:03.940Z,2.37
2022-11-20T23:37:32.012Z,2.50
2022-11-20T23:40:01.450Z,2.90
2022-11-20T23:42:32.464Z,2.60
2022-11-20T23:45:03.397Z,2.13
2022-11-20T23:50:01.876Z,2.53
2022-11-20T23:52:29.942Z,2.85
2022-11-20T23:54:57.958Z,2.43
2022-11-20T23:57:27.413Z,2.27
2022-11-20T23:59:55.427Z,2.60
